createdAt,value
2022-09-23T00:02:17.559Z,82.49
2022-09-23T00:04:47.195Z,82.18
2022-09-23T00:07:17.074Z,81.90
2022-09-23T00:09:47.014Z,81.41
2022-09-23T00:12:19.171Z,81.03
2022-09-23T00:14:48.764Z,80.85
2022-09-23T00:17:18.364Z,80.49
2022-09-23T00:19:48.846Z,80.48
2022-09-23T00:22:19.045Z,79.92
2022-09-23T00:24:48.612Z,80.22
2022-09-23T00:27:21.127Z,80.12
2022-09-23T00:29:50.790Z,80.34
2022-09-23T00:32:20.414Z,80.32
2022-09-23T00:34:51.544Z,80.29
2022-09-23T00:37:21.911Z,79.87
2022-09-23T00:39:51.624Z,79.86
2022-09-23T00:42:25.317Z,79.66
2022-09-23T00:44:56.431Z,79.41
2022-09-23T00:47:31.978Z,79.71
2022-09-23T00:50:10.258Z,79.72
2022-09-23T00:52:40.456Z,80.00
2022-09-23T00:55:14.038Z,79.97
2022-09-23T00:57:48.661Z,79.64
2022-09-23T01:00:18.525Z,79.51
2022-09-23T01:02:48.636Z,79.17
2022-09-23T01:05:19.056Z,78.72
2022-09-23T01:07:49.084Z,79.59
2022-09-23T01:10:21.542Z,79.43
2022-09-23T01:13:08.569Z,79.02
2022-09-23T01:15:47.469Z,79.68
2022-09-23T01:18:28.537Z,79.60
2022-09-23T01:21:15.153Z,79.27
2022-09-23T01:24:17.029Z,79.22
2022-09-23T01:26:57.814Z,79.49
2022-09-23T01:30:08.747Z,78.85
2022-09-23T01:33:00.785Z,78.97
2022-09-23T01:35:40.844Z,79.33
2022-09-23T01:38:19.601Z,79.48
2022-09-23T01:40:55.649Z,79.27
2022-09-23T01:43:30.394Z,79.23
2022-09-23T01:46:03.154Z,78.64
2022-09-23T01:48:40.308Z,78.44
2022-09-23T01:51:16.324Z,78.49
2022-09-23T01:53:50.370Z,78.88
2022-09-23T01:56:25.187Z,78.71
2022-09-23T01:59:02.363Z,78.81
2022-09-23T02:01:39.344Z,78.92
2022-09-23T02:04:17.517Z,78.93
2022-09-23T02:06:53.285Z,79.10
2022-09-23T02:09:28.461Z,79.41
2022-09-23T02:12:05.798Z,79.14
2022-09-23T02:14:41.277Z,78.85
2022-09-23T02:17:13.552Z,78.58
2022-09-23T02:19:49.396Z,78.40
2022-09-23T02:22:31.069Z,78.01
2022-09-23T02:25:00.800Z,78.61
2022-09-23T02:27:37.861Z,78.64
2022-09-23T02:30:12.796Z,78.83
2022-09-23T02:32:52.607Z,78.81
2022-09-23T02:35:33.286Z,78.81
2022-09-23T02:38:17.822Z,78.75
2022-09-23T02:40:55.645Z,79.02
2022-09-23T02:43:32.212Z,79.16
2022-09-23T02:46:02.311Z,78.97
2022-09-23T02:48:35.902Z,79.00
2022-09-23T02:51:08.592Z,78.81
2022-09-23T02:53:38.354Z,78.59
2022-09-23T02:56:19.110Z,78.35
2022-09-23T02:58:49.891Z,78.69
2022-09-23T03:01:33.176Z,78.60
2022-09-23T03:04:13.196Z,78.82
2022-09-23T03:06:54.968Z,78.64
2022-09-23T03:09:29.205Z,78.80
2022-09-23T03:12:12.710Z,79.00
2022-09-23T03:14:51.946Z,78.78
2022-09-23T03:17:29.523Z,78.75
2022-09-23T03:20:04.557Z,78.48
2022-09-23T03:22:41.648Z,77.98
2022-09-23T03:25:16.287Z,78.00
2022-09-23T03:27:47.763Z,78.22
2022-09-23T03:30:17.919Z,78.79
2022-09-23T03:32:51.216Z,79.41
2022-09-23T03:35:21.358Z,79.36
2022-09-23T03:37:59.141Z,79.05
2022-09-23T03:40:35.354Z,79.20
2022-09-23T03:43:06.164Z,79.44
2022-09-23T03:45:37.681Z,79.47
2022-09-23T03:48:07.913Z,79.72
2022-09-23T03:50:39.287Z,79.70
2022-09-23T03:53:12.781Z,79.99
2022-09-23T03:55:42.555Z,80.09
2022-09-23T03:58:12.180Z,80.51
2022-09-23T04:00:42.401Z,80.90
2022-09-23T04:03:12.152Z,80.94
2022-09-23T04:05:41.857Z,80.90
2022-09-23T04:08:14.046Z,80.20
2022-09-23T04:10:44.125Z,79.63
2022-09-23T04:13:13.754Z,79.45
2022-09-23T04:15:43.700Z,79.34
2022-09-23T04:18:13.336Z,79.52
2022-09-23T04:20:42.970Z,79.42
2022-09-23T04:23:15.176Z,79.72
2022-09-23T04:25:47.912Z,80.05
2022-09-23T04:28:17.761Z,80.35
2022-09-23T04:30:48.869Z,80.56
2022-09-23T04:33:19.008Z,80.26
2022-09-23T04:35:52.877Z,80.20
2022-09-23T04:38:25.205Z,80.04
2022-09-23T04:40:54.843Z,80.21
2022-09-23T04:43:25.642Z,80.67
2022-09-23T04:46:02.599Z,80.27
2022-09-23T04:48:32.607Z,80.71
2022-09-23T04:51:05.843Z,80.92
2022-09-23T04:53:39.087Z,80.64
2022-09-23T04:56:12.124Z,80.81
2022-09-23T04:58:43.407Z,81.06
2022-09-23T05:01:14.404Z,80.51
2022-09-23T05:03:45.094Z,81.09
2022-09-23T05:06:16.966Z,80.33
2022-09-23T05:08:53.858Z,79.83
2022-09-23T05:11:24.194Z,80.16
2022-09-23T05:13:55.553Z,80.33
2022-09-23T05:16:28.382Z,80.76
2022-09-23T05:18:58.157Z,80.62
2022-09-23T05:21:30.292Z,80.21
2022-09-23T05:24:02.673Z,80.33
2022-09-23T05:26:35.271Z,80.38
2022-09-23T05:29:04.986Z,80.40
2022-09-23T05:31:36.750Z,79.63
2022-09-23T05:34:08.540Z,79.72
2022-09-23T05:36:39.426Z,79.80
2022-09-23T05:39:12.782Z,79.80
2022-09-23T05:41:43.469Z,79.72
2022-09-23T05:44:13.231Z,79.59
2022-09-23T05:46:44.017Z,80.46
2022-09-23T05:49:13.786Z,80.17
2022-09-23T05:51:43.537Z,81.83
2022-09-23T05:54:16.829Z,80.31
2022-09-23T05:56:46.517Z,80.06
2022-09-23T05:59:16.217Z,80.41
2022-09-23T06:01:46.967Z,80.69
2022-09-23T06:04:17.145Z,80.61
2022-09-23T06:06:47.830Z,80.71
2022-09-23T06:09:20.096Z,80.95
2022-09-23T06:11:50.918Z,80.09
2022-09-23T06:14:20.841Z,80.93
2022-09-23T06:16:50.548Z,81.28
2022-09-23T06:19:20.248Z,81.44
2022-09-23T06:21:53.452Z,81.70
2022-09-23T06:24:30.768Z,81.44
2022-09-23T06:27:01.095Z,81.82
2022-09-23T06:29:32.147Z,81.86
2022-09-23T06:32:02.354Z,81.87
2022-09-23T06:34:40.966Z,81.71
2022-09-23T06:37:20.105Z,81.23
2022-09-23T06:39:54.898Z,80.55
2022-09-23T06:42:24.620Z,80.34
2022-09-23T06:44:54.325Z,80.55
2022-09-23T06:47:26.086Z,80.49
2022-09-23T06:49:55.842Z,80.15
2022-09-23T06:52:26.713Z,80.07
2022-09-23T06:55:01.033Z,80.07
2022-09-23T06:57:32.892Z,79.69
2022-09-23T07:00:03.322Z,79.59
2022-09-23T07:02:35.692Z,80.13
2022-09-23T07:05:05.648Z,79.94
2022-09-23T07:07:36.801Z,79.93
2022-09-23T07:10:10.121Z,79.65
2022-09-23T07:12:40.312Z,80.48
2022-09-23T07:15:16.860Z,80.60
2022-09-23T07:17:50.566Z,81.16
2022-09-23T07:20:20.690Z,81.08
2022-09-23T07:22:52.541Z,80.77
2022-09-23T07:25:25.180Z,80.06
2022-09-23T07:27:58.869Z,80.14
2022-09-23T07:30:28.555Z,79.96
2022-09-23T07:32:58.355Z,79.11
2022-09-23T07:35:28.199Z,79.01
2022-09-23T07:37:58.918Z,79.47
2022-09-23T07:40:31.279Z,78.71
2022-09-23T07:43:02.137Z,78.70
2022-09-23T07:45:33.289Z,78.42
2022-09-23T07:48:03.633Z,78.22
2022-09-23T07:50:33.893Z,77.92
2022-09-23T07:53:04.230Z,77.33
2022-09-23T07:55:37.804Z,76.77
2022-09-23T07:58:08.470Z,76.77
2022-09-23T08:00:39.229Z,76.77
2022-09-23T08:03:10.265Z,77.20
2022-09-23T08:05:41.616Z,76.10
2022-09-23T08:08:11.374Z,76.17
2022-09-23T08:10:43.685Z,76.49
2022-09-23T08:13:16.481Z,76.83
2022-09-23T08:15:55.256Z,76.54
2022-09-23T08:18:25.304Z,76.14
2022-09-23T08:20:55.472Z,76.62
2022-09-23T08:23:25.161Z,76.05
2022-09-23T08:26:02.721Z,73.68
2022-09-23T08:28:33.859Z,74.92
2022-09-23T08:31:04.808Z,74.81
2022-09-23T08:33:34.564Z,74.88
2022-09-23T08:36:08.313Z,74.08
2022-09-23T08:38:40.037Z,73.53
2022-09-23T08:41:22.745Z,73.77
2022-09-23T08:43:58.561Z,73.69
2022-09-23T08:46:35.427Z,74.46
2022-09-23T08:49:08.832Z,73.96
2022-09-23T08:51:44.348Z,73.67
2022-09-23T08:54:20.903Z,72.81
2022-09-23T08:57:00.437Z,71.37
2022-09-23T08:59:38.518Z,70.92
2022-09-23T09:02:14.121Z,71.09
2022-09-23T09:04:47.368Z,68.64
2022-09-23T09:07:36.254Z,68.80
2022-09-23T09:10:13.443Z,69.65
2022-09-23T09:12:49.060Z,69.22
2022-09-23T09:15:24.774Z,70.11
2022-09-23T09:18:02.740Z,69.22
2022-09-23T09:20:42.257Z,69.58
2022-09-23T09:23:23.716Z,69.82
2022-09-23T09:25:55.595Z,69.99
2022-09-23T09:28:36.455Z,69.20
2022-09-23T09:31:18.514Z,68.88
2022-09-23T09:33:58.007Z,69.46
2022-09-23T09:36:38.737Z,68.41
2022-09-23T09:39:09.412Z,69.01
2022-09-23T09:41:40.282Z,69.31
2022-09-23T09:44:25.414Z,68.30
2022-09-23T09:47:09.193Z,67.86
2022-09-23T09:49:45.643Z,67.43
2022-09-23T09:52:26.024Z,68.13
2022-09-23T09:55:00.593Z,67.60
2022-09-23T09:57:36.066Z,67.55
2022-09-23T10:00:42.307Z,67.22
2022-09-23T10:03:40.100Z,66.07
2022-09-23T10:06:19.774Z,66.76
2022-09-23T10:09:05.034Z,66.85
2022-09-23T10:11:36.960Z,66.31
2022-09-23T10:14:09.452Z,65.57
2022-09-23T10:16:43.945Z,65.97
2022-09-23T10:19:20.015Z,65.93
2022-09-23T10:21:54.695Z,65.78
2022-09-23T10:24:29.227Z,65.09
2022-09-23T10:27:04.420Z,64.15
2022-09-23T10:29:39.515Z,65.86
2022-09-23T10:32:32.772Z,64.73
2022-09-23T10:35:16.544Z,65.80
2022-09-23T10:37:49.513Z,65.29
2022-09-23T10:40:38.801Z,64.01
2022-09-23T10:43:42.502Z,65.71
2022-09-23T10:46:48.278Z,63.50
2022-09-23T10:49:49.951Z,62.46
2022-09-23T10:52:36.485Z,64.02
2022-09-23T10:55:16.396Z,63.58
2022-09-23T10:58:05.817Z,63.11
2022-09-23T11:00:44.130Z,63.08
2022-09-23T11:03:32.174Z,63.42
2022-09-23T11:06:15.300Z,62.34
2022-09-23T11:09:00.037Z,64.59
2022-09-23T11:11:40.235Z,62.78
2022-09-23T11:14:25.712Z,60.53
2022-09-23T11:17:14.814Z,62.36
2022-09-23T11:20:11.150Z,61.34
2022-09-23T11:23:00.530Z,61.46
2022-09-23T11:25:40.481Z,62.46
2022-09-23T11:28:40.750Z,62.07
2022-09-23T11:31:26.495Z,62.22
2022-09-23T11:34:10.475Z,61.24
2022-09-23T11:36:45.566Z,62.43
2022-09-23T11:39:22.472Z,61.69
2022-09-23T11:41:56.919Z,61.18
2022-09-23T11:44:32.083Z,60.98
2022-09-23T11:47:07.902Z,60.06
2022-09-23T11:49:41.261Z,59.76
2022-09-23T11:52:19.588Z,61.26
2022-09-23T11:54:57.117Z,60.32
2022-09-23T11:57:44.968Z,58.96
2022-09-23T12:00:21.733Z,57.37
2022-09-23T12:03:09.381Z,58.02
2022-09-23T12:05:48.056Z,58.94
2022-09-23T12:08:25.719Z,59.98
2022-09-23T12:11:08.679Z,58.90
2022-09-23T12:13:51.880Z,59.12
2022-09-23T12:16:39.471Z,60.15
2022-09-23T12:19:23.193Z,58.38
2022-09-23T12:22:07.965Z,58.60
2022-09-23T12:24:50.012Z,57.38
2022-09-23T12:27:32.264Z,58.35
2022-09-23T12:30:06.291Z,58.65
2022-09-23T12:32:36.915Z,56.14
2022-09-23T12:35:08.716Z,58.22
2022-09-23T12:37:41.948Z,57.68
2022-09-23T12:40:21.968Z,58.40
2022-09-23T12:42:54.748Z,59.84
2022-09-23T12:45:48.594Z,58.39
2022-09-23T12:48:47.344Z,56.60
2022-09-23T12:51:23.991Z,57.17
2022-09-23T12:54:22.044Z,58.11
2022-09-23T12:57:08.472Z,59.12
2022-09-23T13:00:01.030Z,55.86
2022-09-23T13:02:34.871Z,55.02
2022-09-23T13:05:36.213Z,53.54
2022-09-23T13:08:10.214Z,54.90
2022-09-23T13:10:46.059Z,54.88
2022-09-23T13:13:24.366Z,55.12
2022-09-23T13:15:57.798Z,53.74
2022-09-23T13:18:54.270Z,53.63
2022-09-23T13:21:53.862Z,53.84
2022-09-23T13:24:40.590Z,55.09
2022-09-23T13:27:18.074Z,54.89
2022-09-23T13:29:53.806Z,55.12
2022-09-23T13:32:32.221Z,54.94
2022-09-23T13:35:04.932Z,53.54
2022-09-23T13:37:45.488Z,53.62
2022-09-23T13:40:24.394Z,53.14
2022-09-23T13:42:59.114Z,54.31
2022-09-23T13:45:31.024Z,53.64
2022-09-23T13:48:07.875Z,54.13
2022-09-23T13:50:41.675Z,53.88
2022-09-23T13:53:14.770Z,54.51
2022-09-23T13:55:47.905Z,56.03
2022-09-23T13:58:24.031Z,56.24
2022-09-23T14:00:54.901Z,56.97
2022-09-23T14:03:36.170Z,56.93
2022-09-23T14:06:10.260Z,58.14
2022-09-23T14:08:43.522Z,58.17
2022-09-23T14:11:18.223Z,58.33
2022-09-23T14:13:50.936Z,59.05
2022-09-23T14:16:21.050Z,60.19
2022-09-23T14:18:58.355Z,59.39
2022-09-23T14:21:35.209Z,59.70
2022-09-23T14:24:16.060Z,59.59
2022-09-23T14:26:48.157Z,59.17
2022-09-23T14:29:21.042Z,58.50
2022-09-23T14:32:00.711Z,58.32
2022-09-23T14:34:51.757Z,57.88
2022-09-23T14:37:41.934Z,59.01
2022-09-23T14:40:16.567Z,58.64
2022-09-23T14:42:49.307Z,59.12
2022-09-23T14:45:22.504Z,58.02
2022-09-23T14:47:54.792Z,58.54
2022-09-23T14:50:47.534Z,58.35
2022-09-23T14:53:42.949Z,57.50
2022-09-23T14:56:20.673Z,56.60
2022-09-23T14:58:53.631Z,56.17
2022-09-23T15:01:36.456Z,56.38
2022-09-23T15:04:15.943Z,57.10
2022-09-23T15:06:54.763Z,57.05
2022-09-23T15:09:26.432Z,55.88
2022-09-23T15:11:59.793Z,55.83
2022-09-23T15:14:40.839Z,56.60
2022-09-23T15:17:32.850Z,56.30
2022-09-23T15:20:05.594Z,56.37
2022-09-23T15:22:45.518Z,56.41
2022-09-23T15:25:20.962Z,57.77
2022-09-23T15:28:03.271Z,56.81
2022-09-23T15:30:33.636Z,56.79
2022-09-23T15:33:03.335Z,57.33
2022-09-23T15:35:33.681Z,57.59
2022-09-23T15:38:06.045Z,57.82
2022-09-23T15:40:39.496Z,57.12
2022-09-23T15:43:21.018Z,57.44
2022-09-23T15:45:53.823Z,58.11
2022-09-23T15:48:25.687Z,58.03
2022-09-23T15:50:56.900Z,58.85
2022-09-23T15:53:31.202Z,59.33
2022-09-23T15:56:00.955Z,59.40
2022-09-23T15:58:30.715Z,60.28
2022-09-23T16:01:01.239Z,59.54
2022-09-23T16:03:31.063Z,59.54
2022-09-23T16:06:03.202Z,59.45
2022-09-23T16:08:35.636Z,59.18
2022-09-23T16:11:06.211Z,59.80
2022-09-23T16:13:35.840Z,59.53
2022-09-23T16:16:07.963Z,60.00
2022-09-23T16:18:38.236Z,59.87
2022-09-23T16:21:09.484Z,59.70
2022-09-23T16:23:47.440Z,60.26
2022-09-23T16:26:20.396Z,61.11
2022-09-23T16:28:51.900Z,61.39
2022-09-23T16:31:25.523Z,60.93
2022-09-23T16:33:56.604Z,60.95
2022-09-23T16:36:28.959Z,61.23
2022-09-23T16:39:03.027Z,61.15
2022-09-23T16:41:34.097Z,62.00
2022-09-23T16:44:10.714Z,62.02
2022-09-23T16:46:42.892Z,61.77
2022-09-23T16:49:14.212Z,62.15
2022-09-23T16:51:43.968Z,62.04
2022-09-23T16:54:17.453Z,62.24
2022-09-23T16:56:47.186Z,61.91
2022-09-23T16:59:18.433Z,62.40
2022-09-23T17:02:00.745Z,61.50
2022-09-23T17:04:31.562Z,61.91
2022-09-23T17:07:01.346Z,62.34
2022-09-23T17:09:34.940Z,62.26
2022-09-23T17:12:11.985Z,62.61
2022-09-23T17:14:41.712Z,63.40
2022-09-23T17:17:11.409Z,63.78
2022-09-23T17:19:41.521Z,64.03
2022-09-23T17:22:11.392Z,64.44
2022-09-23T17:24:43.664Z,60.60
2022-09-23T17:27:13.607Z,62.38
2022-09-23T17:29:44.517Z,63.55
2022-09-23T17:32:14.173Z,65.04
2022-09-23T17:34:44.838Z,65.28
2022-09-23T17:37:14.673Z,65.78
2022-09-23T17:39:46.943Z,66.03
2022-09-23T17:42:18.300Z,66.64
2022-09-23T17:44:48.186Z,66.32
2022-09-23T17:47:17.989Z,66.51
2022-09-23T17:49:49.497Z,67.12
2022-09-23T17:52:19.920Z,66.84
2022-09-23T17:54:55.283Z,67.49
2022-09-23T17:57:25.223Z,67.39
2022-09-23T17:59:56.151Z,67.49
2022-09-23T18:02:26.595Z,68.01
2022-09-23T18:04:57.473Z,67.81
2022-09-23T18:07:28.013Z,67.87
2022-09-23T18:10:01.109Z,68.28
2022-09-23T18:12:33.220Z,68.84
2022-09-23T18:15:04.409Z,68.95
2022-09-23T18:17:36.185Z,69.30
2022-09-23T18:20:07.862Z,69.79
2022-09-23T18:22:37.592Z,70.24
2022-09-23T18:25:35.133Z,70.12
2022-09-23T18:28:00.856Z,70.33
2022-09-23T18:30:33.042Z,70.80
2022-09-23T18:33:03.442Z,71.16
2022-09-23T18:35:33.147Z,71.45
2022-09-23T18:38:02.875Z,71.48
2022-09-23T18:40:35.571Z,71.81
2022-09-23T18:43:05.267Z,72.13
2022-09-23T18:45:35.025Z,72.33
2022-09-23T18:48:17.541Z,72.02
2022-09-23T18:50:48.921Z,72.39
2022-09-23T18:53:18.649Z,72.62
2022-09-23T18:55:50.936Z,73.21
2022-09-23T18:58:20.654Z,73.40
2022-09-23T19:00:51.414Z,73.19
2022-09-23T19:03:21.178Z,73.08
2022-09-23T19:05:51.427Z,73.40
2022-09-23T19:08:21.381Z,67.59
2022-09-23T19:11:00.269Z,69.95
2022-09-23T19:13:30.313Z,72.02
2022-09-23T19:16:04.695Z,72.89
2022-09-23T19:18:35.016Z,74.16
2022-09-23T19:21:07.057Z,74.52
2022-09-23T19:23:37.617Z,74.13
2022-09-23T19:26:12.326Z,74.29
2022-09-23T19:28:42.748Z,74.55
2022-09-23T19:31:13.963Z,74.41
2022-09-23T19:33:46.271Z,74.49
2022-09-23T19:36:20.181Z,74.64
2022-09-23T19:38:50.200Z,74.83
2022-09-23T19:41:22.502Z,74.41
2022-09-23T19:43:55.139Z,75.08
2022-09-23T19:46:25.066Z,75.48
2022-09-23T19:48:55.953Z,76.04
2022-09-23T19:51:25.645Z,76.38
2022-09-23T19:53:55.714Z,76.14
2022-09-23T19:56:28.014Z,76.37
2022-09-23T19:58:58.398Z,76.84
2022-09-23T20:01:29.774Z,74.03
2022-09-23T20:03:59.756Z,75.44
2022-09-23T20:06:32.819Z,76.09
2022-09-23T20:09:02.915Z,75.52
2022-09-23T20:11:35.531Z,75.47
2022-09-23T20:14:06.562Z,75.76
2022-09-23T20:16:38.550Z,75.51
2022-09-23T20:19:08.896Z,75.84
2022-09-23T20:21:38.625Z,75.87
2022-09-23T20:24:09.756Z,76.08
2022-09-23T20:26:54.646Z,75.99
2022-09-23T20:29:24.411Z,76.44
2022-09-23T20:31:54.246Z,77.46
2022-09-23T20:34:23.936Z,77.37
2022-09-23T20:36:53.671Z,77.74
2022-09-23T20:39:23.377Z,78.19
2022-09-23T20:41:55.688Z,78.55
2022-09-23T20:44:25.785Z,79.09
2022-09-23T20:46:55.523Z,79.46
2022-09-23T20:49:25.298Z,79.91
2022-09-23T20:51:55.030Z,79.53
2022-09-23T20:54:24.904Z,79.31
2022-09-23T20:56:57.177Z,79.63
2022-09-23T20:59:27.320Z,79.84
2022-09-23T21:01:58.248Z,79.98
2022-09-23T21:04:28.326Z,80.05
2022-09-23T21:06:58.662Z,80.37
2022-09-23T21:09:30.958Z,80.45
2022-09-23T21:12:03.633Z,80.24
2022-09-23T21:14:33.375Z,79.95
2022-09-23T21:17:03.169Z,79.92
2022-09-23T21:19:35.244Z,79.63
2022-09-23T21:22:04.961Z,79.70
2022-09-23T21:25:12.179Z,79.52
2022-09-23T21:27:27.178Z,79.88
2022-09-23T21:29:56.896Z,80.46
2022-09-23T21:32:26.725Z,80.73
2022-09-23T21:34:57.457Z,80.85
2022-09-23T21:37:27.199Z,80.94
2022-09-23T21:40:09.239Z,81.07
2022-09-23T21:42:42.126Z,80.99
2022-09-23T21:45:13.059Z,80.72
2022-09-23T21:47:42.850Z,80.80
2022-09-23T21:50:12.820Z,80.52
2022-09-23T21:52:42.593Z,75.22
2022-09-23T21:55:12.520Z,77.34
2022-09-23T21:57:46.143Z,78.84
2022-09-23T22:00:17.369Z,80.13
2022-09-23T22:02:47.130Z,80.06
2022-09-23T22:05:16.890Z,80.97
2022-09-23T22:07:46.538Z,81.09
2022-09-23T22:10:16.260Z,81.34
2022-09-23T22:12:50.586Z,80.55
2022-09-23T22:15:20.435Z,81.10
2022-09-23T22:17:50.621Z,80.59
2022-09-23T22:20:20.268Z,80.44
2022-09-23T22:22:51.336Z,79.70
2022-09-23T22:25:21.184Z,79.64
2022-09-23T22:28:17.748Z,79.31
2022-09-23T22:30:59.978Z,79.40
2022-09-23T22:33:29.716Z,79.79
2022-09-23T22:36:04.157Z,79.49
2022-09-23T22:38:34.078Z,79.59
2022-09-23T22:41:03.860Z,79.36
2022-09-23T22:43:37.600Z,78.80
2022-09-23T22:46:07.369Z,79.34
2022-09-23T22:48:37.088Z,79.31
2022-09-23T22:51:07.252Z,79.45
2022-09-23T22:53:36.925Z,79.50
2022-09-23T22:56:06.666Z,80.02
2022-09-23T22:58:39.001Z,79.97
2022-09-23T23:01:11.302Z,80.42
2022-09-23T23:03:42.043Z,80.63
2022-09-23T23:06:12.660Z,80.71
2022-09-23T23:08:42.382Z,81.43
2022-09-23T23:11:12.671Z,81.37
2022-09-23T23:13:45.424Z,81.48
2022-09-23T23:16:15.566Z,81.05
2022-09-23T23:18:47.674Z,80.79
2022-09-23T23:21:19.574Z,80.92
2022-09-23T23:23:52.538Z,81.09
2022-09-23T23:26:24.204Z,81.59
2022-09-23T23:28:57.392Z,81.64
2022-09-23T23:31:29.276Z,81.52
2022-09-23T23:33:59.504Z,81.60
2022-09-23T23:36:30.811Z,81.86
2022-09-23T23:39:00.488Z,81.86
2022-09-23T23:41:30.185Z,81.75
2022-09-23T23:44:03.382Z,81.88
2022-09-23T23:46:34.693Z,81.97
2022-09-23T23:49:04.436Z,81.92
2022-09-23T23:51:34.068Z,82.28
2022-09-23T23:54:03.975Z,82.13
2022-09-23T23:56:33.778Z,82.08
2022-09-23T23:59:06.811Z,82.06
